Time;durP1;ratioP1;P1;durP2;ratioP2;P2;SDS_P1;SDS_P2;PMS_P1;PMS_P2;Temp;Humidity;BMP_temperature;BMP_pressure;BME280_temperature;BME280_humidity;BME280_pressure;Samples;Min_cycle;Max_cycle;Signal;HPM_P1;HPM_P2
2023/07/25 00:00:54;;;;;;;4.82;2.95;;;20.70;99.90;;;;;;5126883;27;20236;-72
2023/07/25 00:03:21;;;;;;;4.00;2.25;;;20.70;99.90;;;;;;5127885;27;20239;-71
2023/07/25 00:05:47;;;;;;;3.35;2.50;;;20.60;99.90;;;;;;5128185;27;20267;-72
2023/07/25 00:08:14;;;;;;;2.88;1.73;;;20.40;99.90;;;;;;5127755;27;20648;-72
2023/07/25 00:10:43;;;;;;;3.03;2.53;;;20.40;99.90;;;;;;5127521;27;20236;-72
2023/07/25 00:13:09;;;;;;;3.55;2.05;;;20.40;99.90;;;;;;5113940;27;20244;-72
2023/07/25 00:15:36;;;;;;;4.35;1.95;;;20.50;99.90;;;;;;5085506;28;20201;-71
2023/07/25 00:18:04;;;;;;;6.10;2.15;;;20.40;99.90;;;;;;5113615;28;20232;-71
2023/07/25 00:20:31;;;;;;;5.63;2.42;;;20.50;99.90;;;;;;5113473;28;20595;-72
2023/07/25 00:22:58;;;;;;;2.60;1.80;;;20.50;99.90;;;;;;5113297;28;20236;-72
2023/07/25 00:25:25;;;;;;;7.55;2.33;;;20.50;99.90;;;;;;5113445;28;20244;-72
2023/07/25 00:27:53;;;;;;;5.03;2.17;;;20.50;99.90;;;;;;5113003;28;20614;-72
2023/07/25 00:30:20;;;;;;;3.88;1.75;;;20.50;99.90;;;;;;5113610;28;20240;-72
2023/07/25 00:32:47;;;;;;;3.70;2.08;;;20.40;99.90;;;;;;5113823;28;20247;-72
2023/07/25 00:35:14;;;;;;;5.55;2.22;;;20.30;99.90;;;;;;5113546;27;20244;-71
2023/07/25 00:37:41;;;;;;;2.75;1.98;;;20.10;99.90;;;;;;5113386;28;20236;-72
2023/07/25 00:40:08;;;;;;;4.78;2.38;;;20.00;99.90;;;;;;5112909;28;20243;-72
2023/07/25 00:42:35;;;;;;;4.90;2.67;;;20.00;99.90;;;;;;5113119;28;20234;-72
2023/07/25 00:45:04;;;;;;;4.00;2.50;;;19.90;99.90;;;;;;5113015;28;20708;-72
2023/07/25 00:47:31;;;;;;;3.47;2.47;;;19.80;99.90;;;;;;5113106;28;20244;-72
2023/07/25 00:49:58;;;;;;;2.95;1.65;;;19.80;99.90;;;;;;5112859;28;20242;-73
2023/07/25 00:52:26;;;;;;;3.13;1.63;;;19.90;99.90;;;;;;5112839;28;20240;-72
2023/07/25 00:54:53;;;;;;;2.42;2.00;;;19.80;99.90;;;;;;5112643;28;20240;-74
2023/07/25 00:57:21;;;;;;;3.90;1.90;;;19.90;99.90;;;;;;5113147;28;20240;-72
2023/07/25 00:59:48;;;;;;;5.15;2.47;;;20.00;99.90;;;;;;5113257;28;20248;-72
2023/07/25 01:02:17;;;;;;;6.07;1.90;;;20.10;99.90;;;;;;5113383;28;20369;-75
2023/07/25 01:04:44;;;;;;;2.33;1.77;;;20.10;99.90;;;;;;5113141;28;20671;-75
2023/07/25 01:07:13;;;;;;;2.80;2.28;;;20.10;99.90;;;;;;5112403;28;20209;-72
2023/07/25 01:09:42;;;;;;;3.70;1.80;;;20.00;99.90;;;;;;5112832;28;20201;-75
2023/07/25 01:12:10;;;;;;;4.20;2.08;;;20.00;99.90;;;;;;5112034;28;20236;-72
2023/07/25 01:14:38;;;;;;;8.52;2.35;;;20.10;99.90;;;;;;5112968;28;20243;-72
2023/07/25 01:17:09;;;;;;;4.32;1.85;;;20.10;99.90;;;;;;5112300;28;20236;-72
2023/07/25 01:19:39;;;;;;;3.60;1.73;;;20.10;99.90;;;;;;5112609;28;20209;-72
2023/07/25 01:22:07;;;;;;;4.68;1.73;;;20.00;99.90;;;;;;5112192;28;20248;-73
2023/07/25 01:24:35;;;;;;;3.83;1.85;;;20.10;99.90;;;;;;5111702;28;20200;-72
2023/07/25 01:27:03;;;;;;;4.38;2.20;;;20.10;99.90;;;;;;5111909;28;20233;-72
2023/07/25 01:29:30;;;;;;;3.55;1.52;;;20.10;99.90;;;;;;5112572;28;20237;-72
2023/07/25 01:31:56;;;;;;;2.75;2.20;;;20.10;99.90;;;;;;5111830;28;20247;-72
2023/07/25 01:34:23;;;;;;;3.00;1.90;;;20.10;99.90;;;;;;5112348;28;20232;-75
2023/07/25 01:36:50;;;;;;;2.53;1.83;;;20.10;99.90;;;;;;5111838;28;20680;-72
2023/07/25 01:39:17;;;;;;;6.80;2.22;;;20.10;99.90;;;;;;5112529;27;20228;-72
2023/07/25 01:41:45;;;;;;;6.70;2.95;;;20.10;99.90;;;;;;5112215;28;20264;-72
2023/07/25 01:44:12;;;;;;;2.55;1.50;;;20.10;99.90;;;;;;5111813;28;20240;-73
2023/07/25 01:46:40;;;;;;;5.55;1.88;;;20.10;99.90;;;;;;5112141;28;20240;-72
2023/07/25 01:49:07;;;;;;;4.47;1.83;;;20.10;99.90;;;;;;5111320;28;20216;-72
2023/07/25 01:51:34;;;;;;;4.78;1.92;;;20.10;99.90;;;;;;5112329;28;20197;-73
2023/07/25 01:54:01;;;;;;;2.83;1.80;;;20.10;99.90;;;;;;5111447;28;20236;-73
2023/07/25 01:56:28;;;;;;;2.13;1.63;;;20.00;99.90;;;;;;5111746;28;20703;-72
2023/07/25 01:58:56;;;;;;;3.00;1.48;;;20.00;99.90;;;;;;5111531;28;20244;-73
2023/07/25 02:01:23;;;;;;;3.92;2.08;;;19.90;99.90;;;;;;5111428;28;20289;-72
2023/07/25 02:03:50;;;;;;;3.78;1.88;;;19.90;99.90;;;;;;5111694;28;20270;-72
2023/07/25 02:06:17;;;;;;;1.75;1.50;;;19.80;99.90;;;;;;5111722;28;20684;-74
2023/07/25 02:08:44;;;;;;;3.97;2.28;;;19.90;99.90;;;;;;5112131;28;20240;-76
2023/07/25 02:11:11;;;;;;;3.40;1.85;;;19.90;99.90;;;;;;5110814;28;20669;-74
2023/07/25 02:13:38;;;;;;;1.88;1.73;;;20.00;99.90;;;;;;5111503;28;20240;-72
2023/07/25 02:16:06;;;;;;;2.97;1.65;;;20.00;99.90;;;;;;5111229;28;20240;-73
2023/07/25 02:18:33;;;;;;;2.42;2.08;;;20.00;99.90;;;;;;5111298;28;20681;-72
2023/07/25 02:21:00;;;;;;;2.00;1.50;;;19.90;99.90;;;;;;5111366;28;20271;-72
2023/07/25 02:23:27;;;;;;;4.40;1.90;;;19.90;99.90;;;;;;5111357;28;20258;-76
2023/07/25 02:25:54;;;;;;;4.80;2.00;;;19.90;99.90;;;;;;5110867;28;20236;-77
2023/07/25 02:28:21;;;;;;;4.50;1.65;;;19.90;99.90;;;;;;5111284;28;20236;-73
2023/07/25 02:30:48;;;;;;;8.43;2.33;;;19.90;99.90;;;;;;5111572;28;20209;-77
2023/07/25 02:33:16;;;;;;;3.58;2.05;;;19.90;99.90;;;;;;5111485;28;20212;-72
2023/07/25 02:35:43;;;;;;;5.72;2.17;;;19.90;99.90;;;;;;5110905;28;20243;-73
2023/07/25 02:38:10;;;;;;;3.72;1.40;;;19.90;99.90;;;;;;5110810;27;20205;-72
2023/07/25 02:40:37;;;;;;;5.97;2.03;;;19.90;99.90;;;;;;5102861;28;20262;-74
2023/07/25 02:43:06;;;;;;;7.00;2.20;;;19.90;99.90;;;;;;5109655;28;20240;-77
2023/07/25 02:45:33;;;;;;;5.30;2.58;;;19.80;99.90;;;;;;5111084;28;20240;-73
2023/07/25 02:48:00;;;;;;;2.17;1.58;;;19.80;99.90;;;;;;5110949;28;20243;-72
2023/07/25 02:50:28;;;;;;;5.35;1.88;;;19.80;99.90;;;;;;5110932;28;20247;-77
2023/07/25 02:52:55;;;;;;;6.00;1.60;;;19.90;99.90;;;;;;5110413;28;20244;-72
2023/07/25 02:55:22;;;;;;;2.20;1.50;;;19.90;99.90;;;;;;5110994;28;20240;-76
2023/07/25 02:57:49;;;;;;;5.78;2.22;;;19.90;99.90;;;;;;5110657;28;20247;-72
2023/07/25 03:00:16;;;;;;;5.22;1.70;;;19.90;99.90;;;;;;5111404;28;20271;-73
2023/07/25 03:02:43;;;;;;;4.95;2.30;;;19.80;99.90;;;;;;5110924;28;20275;-72
2023/07/25 03:05:10;;;;;;;3.25;1.92;;;19.70;99.90;;;;;;5110579;28;20739;-72
2023/07/25 03:07:38;;;;;;;4.38;2.38;;;19.60;99.90;;;;;;5110654;28;20650;-73
2023/07/25 03:10:07;;;;;;;1.83;1.70;;;19.60;99.90;;;;;;5110363;28;20304;-72
2023/07/25 03:12:34;;;;;;;5.82;2.05;;;19.60;99.90;;;;;;5110722;28;20294;-73
2023/07/25 03:15:01;;;;;;;4.82;2.30;;;19.60;99.90;;;;;;5110360;28;20201;-72
2023/07/25 03:17:28;;;;;;;4.85;2.85;;;19.40;99.90;;;;;;5110941;28;20201;-76
2023/07/25 03:19:55;;;;;;;3.97;2.50;;;19.30;99.90;;;;;;5095943;28;20233;-72
2023/07/25 03:22:22;;;;;;;5.90;2.63;;;19.30;99.90;;;;;;5110449;28;20266;-77
2023/07/25 03:24:50;;;;;;;7.13;3.30;;;19.20;99.90;;;;;;5110423;28;20240;-73
2023/07/25 03:27:18;;;;;;;4.53;2.55;;;19.10;99.90;;;;;;5111093;28;20672;-73
2023/07/25 03:29:45;;;;;;;9.93;2.78;;;19.10;99.90;;;;;;5111205;28;20239;-72
2023/07/25 03:32:12;;;;;;;6.22;2.85;;;19.10;99.90;;;;;;5109997;28;20628;-72
2023/07/25 03:34:39;;;;;;;6.45;2.72;;;19.10;99.90;;;;;;5110743;28;20216;-72
2023/07/25 03:37:06;;;;;;;7.30;3.78;;;19.10;99.90;;;;;;5109938;28;20248;-72
2023/07/25 03:39:33;;;;;;;7.10;2.83;;;19.20;99.90;;;;;;5110692;28;20668;-74
2023/07/25 03:42:02;;;;;;;7.05;2.40;;;19.30;99.90;;;;;;5109989;28;20670;-73
2023/07/25 03:44:29;;;;;;;3.90;2.60;;;19.30;99.90;;;;;;5110753;28;20236;-73
2023/07/25 03:46:55;;;;;;;6.53;3.08;;;19.40;99.90;;;;;;5111131;28;20209;-72
2023/07/25 03:49:22;;;;;;;5.40;3.25;;;19.30;99.90;;;;;;5114309;28;20237;-73
2023/07/25 03:51:49;;;;;;;7.15;2.30;;;19.40;99.90;;;;;;5114075;28;20240;-72
2023/07/25 03:54:17;;;;;;;5.38;2.83;;;19.40;99.90;;;;;;5114553;28;20235;-73
2023/07/25 03:56:44;;;;;;;6.57;2.30;;;19.50;99.90;;;;;;5114695;28;20208;-77
2023/07/25 03:59:13;;;;;;;7.88;3.25;;;19.50;99.90;;;;;;5113688;28;20209;-73
2023/07/25 04:01:39;;;;;;;8.60;3.13;;;19.40;99.90;;;;;;5113972;28;20287;-73
2023/07/25 04:04:06;;;;;;;6.82;2.15;;;19.40;99.90;;;;;;5113533;28;20590;-72
2023/07/25 04:06:33;;;;;;;5.20;2.65;;;19.40;99.90;;;;;;5113896;28;20197;-73
2023/07/25 04:09:00;;;;;;;5.53;2.28;;;19.50;99.90;;;;;;5113852;28;20236;-73
2023/07/25 04:11:27;;;;;;;10.10;2.78;;;19.50;99.90;;;;;;5113873;28;20244;-76
2023/07/25 04:13:54;;;;;;;7.30;2.70;;;19.50;99.90;;;;;;5113843;28;20243;-73
2023/07/25 04:16:22;;;;;;;7.93;3.13;;;19.50;99.90;;;;;;5113795;28;20255;-72
2023/07/25 04:18:49;;;;;;;5.18;2.45;;;19.40;99.90;;;;;;5113835;28;20245;-73
2023/07/25 04:21:16;;;;;;;9.13;3.10;;;19.40;99.90;;;;;;5113504;28;20251;-72
2023/07/25 04:23:44;;;;;;;6.00;2.47;;;19.40;99.90;;;;;;5113999;28;20247;-73
2023/07/25 04:26:11;;;;;;;6.05;2.40;;;19.20;99.90;;;;;;5113268;28;20220;-72
2023/07/25 04:28:37;;;;;;;4.72;2.47;;;19.10;99.90;;;;;;5113873;28;20293;-74
2023/07/25 04:31:04;;;;;;;6.68;2.45;;;19.10;99.90;;;;;;5113102;28;20244;-73
2023/07/25 04:33:33;;;;;;;6.47;2.50;;;19.10;99.90;;;;;;5113375;28;20213;-73
2023/07/25 04:36:00;;;;;;;5.43;2.67;;;19.10;99.90;;;;;;5113250;28;20240;-73
2023/07/25 04:38:26;;;;;;;6.43;2.88;;;19.20;99.90;;;;;;5113362;28;20246;-73
2023/07/25 04:40:55;;;;;;;4.85;3.03;;;19.20;99.90;;;;;;5112954;28;20240;-72
2023/07/25 04:43:22;;;;;;;6.65;2.45;;;19.20;99.90;;;;;;5113094;27;20237;-73
2023/07/25 04:45:49;;;;;;;6.25;2.10;;;19.20;99.90;;;;;;5113350;28;20224;-73
2023/07/25 04:48:16;;;;;;;6.28;3.13;;;19.20;99.90;;;;;;5113290;28;20228;-73
2023/07/25 04:50:44;;;;;;;7.15;3.08;;;19.20;99.90;;;;;;5112916;28;20209;-73
2023/07/25 04:53:11;;;;;;;6.72;2.30;;;19.20;99.90;;;;;;5112697;28;20243;-72
2023/07/25 04:55:38;;;;;;;8.40;3.55;;;19.10;99.90;;;;;;5112932;28;20665;-73
2023/07/25 04:58:05;;;;;;;3.88;2.20;;;19.10;99.90;;;;;;5112717;28;20236;-77
2023/07/25 05:00:32;;;;;;;6.93;1.85;;;19.20;99.90;;;;;;5113073;28;20245;-72
2023/07/25 05:02:59;;;;;;;5.82;2.20;;;19.10;99.90;;;;;;5112303;28;20742;-72
2023/07/25 05:05:26;;;;;;;7.45;2.03;;;19.10;99.90;;;;;;5113008;28;20240;-71
2023/07/25 05:07:54;;;;;;;3.70;2.05;;;19.10;99.90;;;;;;5112263;28;20253;-71
2023/07/25 05:10:21;;;;;;;6.28;2.13;;;19.10;99.90;;;;;;5108130;28;20244;-72
2023/07/25 05:12:48;;;;;;;3.53;1.77;;;19.10;99.90;;;;;;5108934;28;20240;-72
2023/07/25 05:15:15;;;;;;;5.55;2.40;;;19.20;99.90;;;;;;5105156;28;20288;-74
2023/07/25 05:17:42;;;;;;;7.03;2.10;;;19.20;99.90;;;;;;5099845;28;20236;-75
2023/07/25 05:20:09;;;;;;;5.38;2.03;;;19.20;99.90;;;;;;5110689;28;20684;-74
2023/07/25 05:22:36;;;;;;;4.85;2.03;;;19.20;99.90;;;;;;5111034;28;20266;-74
2023/07/25 05:25:05;;;;;;;2.45;1.60;;;19.30;99.90;;;;;;5112055;28;20694;-75
2023/07/25 05:27:32;;;;;;;6.72;2.60;;;19.30;99.90;;;;;;5112369;28;20208;-75
2023/07/25 05:29:59;;;;;;;5.75;2.42;;;19.20;99.90;;;;;;5110597;28;20259;-75
2023/07/25 05:32:26;;;;;;;5.88;2.72;;;19.20;99.90;;;;;;5095064;28;20244;-76
2023/07/25 05:34:53;;;;;;;4.13;2.03;;;19.20;99.90;;;;;;5093154;28;20718;-75
2023/07/25 05:37:20;;;;;;;7.18;2.25;;;19.20;99.90;;;;;;5091817;28;20241;-75
2023/07/25 05:39:47;;;;;;;7.03;2.70;;;19.20;99.90;;;;;;5092816;28;20233;-74
2023/07/25 05:42:15;;;;;;;5.50;1.98;;;19.40;99.90;;;;;;5111970;28;20260;-75
2023/07/25 05:44:42;;;;;;;5.03;2.30;;;19.40;99.90;;;;;;5112307;28;20237;-75
2023/07/25 05:47:09;;;;;;;3.30;2.08;;;19.30;99.90;;;;;;5111408;28;20236;-74
2023/07/25 05:49:36;;;;;;;6.32;2.60;;;19.20;99.90;;;;;;5112145;28;20681;-74
2023/07/25 05:52:03;;;;;;;6.53;2.58;;;19.10;99.90;;;;;;5101249;28;20209;-74
2023/07/25 05:54:30;;;;;;;6.05;2.92;;;19.00;99.90;;;;;;5111371;28;20248;-74
2023/07/25 05:56:57;;;;;;;6.88;1.92;;;19.10;99.90;;;;;;5108072;28;20216;-74
2023/07/25 05:59:25;;;;;;;5.40;2.10;;;19.40;99.90;;;;;;5109842;28;20243;-74
2023/07/25 06:01:52;;;;;;;4.22;1.98;;;19.80;99.90;;;;;;5109060;28;20271;-74
2023/07/25 06:04:19;;;;;;;4.15;2.40;;;20.00;99.90;;;;;;5111704;28;20247;-74
2023/07/25 06:06:46;;;;;;;11.38;3.08;;;20.10;99.90;;;;;;5112161;28;20243;-74
2023/07/25 06:09:13;;;;;;;5.45;2.80;;;20.10;99.90;;;;;;5092246;28;20251;-72
2023/07/25 06:11:40;;;;;;;7.82;2.22;;;20.10;99.90;;;;;;5111555;28;20636;-75
2023/07/25 06:14:07;;;;;;;4.57;2.30;;;19.80;99.90;;;;;;5096926;28;20248;-74
2023/07/25 06:16:35;;;;;;;5.05;2.20;;;19.70;99.90;;;;;;5110306;28;20239;-75
2023/07/25 06:19:02;;;;;;;6.68;2.33;;;19.60;99.90;;;;;;5091318;28;20263;-75
2023/07/25 06:21:29;;;;;;;8.57;3.00;;;19.60;99.90;;;;;;5103922;28;20238;-75
2023/07/25 06:23:56;;;;;;;7.20;3.08;;;19.60;99.90;;;;;;5097276;28;20720;-76
2023/07/25 06:26:23;;;;;;;4.25;2.38;;;19.60;99.90;;;;;;5092184;28;20261;-75
2023/07/25 06:28:51;;;;;;;10.10;3.05;;;19.60;99.90;;;;;;5096102;28;20270;-74
2023/07/25 06:31:18;;;;;;;5.35;3.33;;;19.70;99.90;;;;;;5094865;28;20284;-77
2023/07/25 06:33:46;;;;;;;9.13;2.63;;;19.70;99.90;;;;;;5091081;28;20247;-74
2023/07/25 06:36:13;;;;;;;5.68;2.13;;;19.60;99.90;;;;;;5093579;28;20251;-73
2023/07/25 06:38:40;;;;;;;8.68;2.88;;;19.70;99.90;;;;;;5090354;28;20598;-75
2023/07/25 06:41:07;;;;;;;5.00;2.47;;;19.80;99.90;;;;;;5090836;28;20232;-75
2023/07/25 06:43:33;;;;;;;7.20;2.60;;;20.30;99.90;;;;;;5089867;28;20265;-75
2023/07/25 06:46:01;;;;;;;9.80;2.75;;;20.80;99.90;;;;;;5090268;28;20255;-74
2023/07/25 06:48:28;;;;;;;4.53;2.30;;;20.90;99.90;;;;;;5090525;28;20286;-74
2023/07/25 06:50:56;;;;;;;5.82;2.40;;;20.60;99.90;;;;;;5108507;28;20244;-75
2023/07/25 06:53:23;;;;;;;9.27;2.67;;;20.50;99.90;;;;;;5111325;28;20244;-75
2023/07/25 06:55:50;;;;;;;14.10;3.38;;;20.40;99.90;;;;;;5110515;28;20255;-75
2023/07/25 06:58:16;;;;;;;5.65;2.42;;;20.50;99.90;;;;;;5111374;28;20247;-75
2023/07/25 07:00:43;;;;;;;7.97;3.28;;;20.60;99.90;;;;;;5090246;28;20889;-75
2023/07/25 07:03:10;;;;;;;5.82;2.15;;;20.80;99.90;;;;;;5087425;28;20275;-75
2023/07/25 07:05:37;;;;;;;11.38;3.17;;;21.00;99.90;;;;;;5110724;28;20240;-75
2023/07/25 07:08:05;;;;;;;8.18;2.63;;;21.10;99.90;;;;;;5109580;28;20232;-74
2023/07/25 07:10:33;;;;;;;5.78;2.53;;;21.30;99.90;;;;;;5110728;28;20245;-78
2023/07/25 07:13:00;;;;;;;3.75;2.30;;;21.40;99.90;;;;;;5110301;28;20204;-75
2023/07/25 07:15:27;;;;;;;5.15;2.53;;;21.30;99.90;;;;;;5110578;28;20244;-78
2023/07/25 07:17:54;;;;;;;5.65;3.25;;;21.20;99.90;;;;;;5109936;28;20244;-76
2023/07/25 07:20:22;;;;;;;6.10;3.33;;;21.50;99.90;;;;;;5110667;28;20247;-76
2023/07/25 07:22:49;;;;;;;6.93;2.20;;;21.70;99.90;;;;;;5113045;28;20310;-76
2023/07/25 07:25:17;;;;;;;5.43;2.22;;;21.60;99.90;;;;;;5115035;28;20596;-76
2023/07/25 07:27:44;;;;;;;17.08;3.80;;;21.50;99.90;;;;;;5115046;28;20236;-76
2023/07/25 07:30:11;;;;;;;5.28;2.45;;;21.40;99.90;;;;;;5114032;28;20263;-74
2023/07/25 07:32:38;;;;;;;6.80;2.13;;;21.30;99.90;;;;;;5114564;28;20546;-76
2023/07/25 07:35:05;;;;;;;6.93;2.30;;;21.20;99.90;;;;;;5114229;28;20232;-76
2023/07/25 07:37:32;;;;;;;4.15;2.13;;;21.20;99.90;;;;;;5114470;28;20247;-73
2023/07/25 07:39:59;;;;;;;4.55;1.95;;;21.20;99.90;;;;;;5113998;28;20248;-75
2023/07/25 07:42:27;;;;;;;9.40;3.28;;;21.20;99.90;;;;;;5114396;28;20711;-74
2023/07/25 07:44:54;;;;;;;5.35;2.72;;;21.10;99.90;;;;;;5113679;28;20251;-73
2023/07/25 07:47:21;;;;;;;4.72;2.90;;;21.00;99.90;;;;;;5114365;28;20267;-73
2023/07/25 07:49:48;;;;;;;6.90;2.88;;;21.10;99.90;;;;;;5114320;28;20240;-74
2023/07/25 07:52:15;;;;;;;5.55;2.42;;;21.20;99.90;;;;;;5114328;28;20548;-73
2023/07/25 07:54:42;;;;;;;4.57;2.95;;;21.60;99.90;;;;;;5114495;28;20572;-75
2023/07/25 07:57:09;;;;;;;5.40;2.47;;;21.90;99.90;;;;;;5113965;28;20239;-73
2023/07/25 07:59:37;;;;;;;5.47;2.50;;;22.00;99.90;;;;;;5113628;28;20241;-74
2023/07/25 08:02:04;;;;;;;8.30;2.83;;;22.10;99.90;;;;;;5113922;27;20253;-73
2023/07/25 08:04:31;;;;;;;6.60;2.63;;;22.00;99.90;;;;;;5113720;28;20271;-73
2023/07/25 08:06:58;;;;;;;7.53;2.08;;;22.30;99.90;;;;;;5113748;28;20270;-76
2023/07/25 08:09:25;;;;;;;5.40;1.80;;;22.30;99.90;;;;;;5113795;28;20641;-76
2023/07/25 08:11:52;;;;;;;4.45;2.00;;;22.40;99.90;;;;;;5113269;28;20586;-74
2023/07/25 08:14:19;;;;;;;6.95;2.65;;;22.00;99.90;;;;;;5113551;28;20248;-74
2023/07/25 08:16:47;;;;;;;5.32;2.20;;;21.90;99.90;;;;;;5114374;28;20241;-75
2023/07/25 08:19:14;;;;;;;3.95;2.25;;;21.90;99.90;;;;;;5113591;28;20259;-75
2023/07/25 08:21:40;;;;;;;4.70;1.90;;;21.80;99.90;;;;;;5113658;28;20247;-75
2023/07/25 08:24:07;;;;;;;4.30;2.00;;;21.40;99.90;;;;;;5113362;28;20264;-75
2023/07/25 08:26:34;;;;;;;4.57;2.20;;;21.40;99.90;;;;;;5113243;28;20239;-74
2023/07/25 08:29:01;;;;;;;7.95;3.20;;;21.40;99.90;;;;;;5113002;28;20716;-74
2023/07/25 08:31:28;;;;;;;3.90;2.20;;;21.20;99.90;;;;;;5113632;28;20255;-75
2023/07/25 08:33:57;;;;;;;3.63;2.08;;;21.30;99.90;;;;;;5112854;28;20715;-75
2023/07/25 08:36:23;;;;;;;3.72;2.55;;;21.50;99.90;;;;;;5113413;28;20215;-75
2023/07/25 08:38:50;;;;;;;9.48;3.40;;;21.60;99.90;;;;;;5113035;28;20233;-76
2023/07/25 08:41:20;;;;;;;4.95;2.03;;;21.70;99.90;;;;;;5113406;28;20236;-75
2023/07/25 08:43:48;;;;;;;6.70;2.15;;;21.90;99.90;;;;;;5100566;28;20241;-75
2023/07/25 08:46:19;;;;;;;4.22;2.22;;;21.90;99.90;;;;;;5102477;28;20236;-76
2023/07/25 08:48:49;;;;;;;7.43;2.78;;;21.80;99.90;;;;;;5110198;28;20246;-75
2023/07/25 08:51:20;;;;;;;5.05;2.40;;;22.10;99.90;;;;;;5113545;28;20325;-75
2023/07/25 08:53:54;;;;;;;12.18;2.40;;;22.20;99.90;;;;;;5106820;28;20244;-75
2023/07/25 08:56:22;;;;;;;3.60;2.42;;;22.10;99.90;;;;;;5100379;28;20205;-75
2023/07/25 08:58:50;;;;;;;7.45;2.13;;;21.90;99.90;;;;;;5100077;28;20630;-75
2023/07/25 09:01:17;;;;;;;3.50;2.75;;;22.00;99.90;;;;;;5093648;28;20232;-75
2023/07/25 09:03:46;;;;;;;6.45;2.67;;;21.90;99.90;;;;;;5100288;28;20265;-75
2023/07/25 09:06:14;;;;;;;7.68;2.75;;;22.10;99.90;;;;;;5090327;28;20236;-75
2023/07/25 09:08:42;;;;;;;7.55;3.00;;;22.10;99.90;;;;;;5097860;28;20242;-75
2023/07/25 09:11:10;;;;;;;7.40;2.95;;;22.30;99.90;;;;;;5106954;28;20244;-75
2023/07/25 09:13:38;;;;;;;2.60;2.00;;;22.60;99.90;;;;;;5111553;28;20201;-74
2023/07/25 09:16:05;;;;;;;5.45;2.60;;;22.90;99.90;;;;;;5100852;28;20271;-73
2023/07/25 09:18:32;;;;;;;4.78;1.70;;;22.90;99.90;;;;;;5095000;28;20736;-73
2023/07/25 09:20:59;;;;;;;3.13;2.45;;;22.70;99.90;;;;;;5096956;28;20237;-74
2023/07/25 09:23:26;;;;;;;2.90;2.60;;;22.80;99.90;;;;;;5097239;28;20235;-73
2023/07/25 09:26:04;;;;;;;3.75;1.67;;;22.80;99.90;;;;;;5112081;28;20265;-73
2023/07/25 09:28:31;;;;;;;5.57;2.55;;;22.60;99.90;;;;;;5112433;28;20203;-74
2023/07/25 09:30:58;;;;;;;5.90;2.42;;;22.70;99.90;;;;;;5100284;28;20499;-82
2023/07/25 09:33:27;;;;;;;6.07;2.78;;;22.80;99.90;;;;;;5087481;28;20209;-77
2023/07/25 09:35:55;;;;;;;5.20;2.15;;;22.60;99.90;;;;;;5090377;28;20266;-75
2023/07/25 09:38:22;;;;;;;4.95;1.95;;;22.70;99.90;;;;;;5096572;28;20237;-73
2023/07/25 09:40:49;;;;;;;4.63;2.38;;;22.70;99.90;;;;;;5104430;28;20209;-74
2023/07/25 09:43:24;;;;;;;7.85;2.30;;;22.70;99.90;;;;;;5091977;28;20317;-74
2023/07/25 09:45:52;;;;;;;5.90;2.78;;;22.80;99.90;;;;;;5083614;28;20200;-74
2023/07/25 09:48:19;;;;;;;6.72;2.38;;;22.90;99.90;;;;;;5085791;28;20241;-74
2023/07/25 09:50:46;;;;;;;6.55;2.45;;;22.80;99.90;;;;;;5109928;28;20246;-71
2023/07/25 09:53:14;;;;;;;3.42;1.85;;;23.00;99.90;;;;;;5111809;28;20664;-71
2023/07/25 09:55:41;;;;;;;14.23;3.40;;;23.20;99.90;;;;;;5110600;28;20250;-73
2023/07/25 09:58:08;;;;;;;4.75;2.22;;;23.50;99.90;;;;;;5108704;28;20243;-71
2023/07/25 10:00:37;;;;;;;6.85;2.42;;;23.60;99.90;;;;;;5105346;28;20748;-70
2023/07/25 10:03:04;;;;;;;4.13;2.10;;;23.40;99.90;;;;;;5111462;28;20247;-71
2023/07/25 10:05:31;;;;;;;8.95;2.17;;;23.00;99.90;;;;;;5111708;28;20684;-70
2023/07/25 10:07:58;;;;;;;4.93;1.83;;;23.20;99.90;;;;;;5111063;28;20229;-71
2023/07/25 10:10:26;;;;;;;2.63;1.58;;;24.00;99.90;;;;;;5110313;28;20208;-70
2023/07/25 10:12:53;;;;;;;3.67;2.17;;;24.30;99.90;;;;;;5109279;28;20293;-71
2023/07/25 10:15:21;;;;;;;3.08;1.58;;;24.50;99.90;;;;;;5109950;28;20236;-71
2023/07/25 10:17:49;;;;;;;6.93;2.50;;;24.00;99.90;;;;;;5110705;28;20262;-71
2023/07/25 10:20:23;;;;;;;4.43;1.73;;;23.40;99.90;;;;;;5110813;28;20205;-70
2023/07/25 10:22:50;;;;;;;3.67;1.80;;;23.10;99.90;;;;;;5109860;28;20279;-71
2023/07/25 10:25:22;;;;;;;5.05;1.92;;;23.10;99.90;;;;;;5111181;28;20228;-71
2023/07/25 10:27:55;;;;;;;4.72;2.05;;;23.70;99.90;;;;;;5111224;28;20714;-71
2023/07/25 10:30:27;;;;;;;4.88;1.90;;;24.10;99.90;;;;;;5111312;28;20232;-71
2023/07/25 10:32:59;;;;;;;3.28;2.10;;;24.30;99.90;;;;;;5111087;28;20204;-70
2023/07/25 10:35:50;;;;;;;3.22;2.00;;;24.40;99.90;;;;;;5095329;28;20209;-70
2023/07/25 10:38:23;;;;;;;3.47;1.33;;;24.40;99.90;;;;;;5111005;28;20211;-73
2023/07/25 10:40:55;;;;;;;3.60;1.95;;;24.30;99.90;;;;;;5110887;27;20232;-72
2023/07/25 10:43:26;;;;;;;2.85;1.70;;;24.10;99.90;;;;;;5111051;28;20232;-71
2023/07/25 10:45:54;;;;;;;5.63;2.00;;;24.30;99.90;;;;;;5104899;28;20711;-71
2023/07/25 10:48:33;;;;;;;5.35;1.50;;;25.00;99.90;;;;;;5081895;28;20206;-77
2023/07/25 10:51:01;;;;;;;5.75;2.45;;;25.40;99.90;;;;;;5094136;28;20676;-70
2023/07/25 10:53:28;;;;;;;3.28;2.10;;;25.50;99.90;;;;;;5081247;28;20693;-71
2023/07/25 10:56:17;;;;;;;3.13;2.45;;;25.40;99.90;;;;;;5100600;28;20243;-71
2023/07/25 10:59:03;;;;;;;3.42;1.75;;;25.20;99.90;;;;;;5094322;28;20589;-71
2023/07/25 11:01:39;;;;;;;3.90;2.35;;;24.90;99.90;;;;;;5086391;28;20205;-71
2023/07/25 11:04:28;;;;;;;6.80;2.15;;;24.90;99.90;;;;;;5089790;28;20635;-70
2023/07/25 11:06:56;;;;;;;5.38;1.80;;;24.80;99.90;;;;;;5095091;28;20240;-73
2023/07/25 11:09:24;;;;;;;4.55;2.10;;;24.80;99.90;;;;;;5110540;28;20208;-71
2023/07/25 11:11:53;;;;;;;3.15;1.67;;;24.70;99.90;;;;;;5110543;28;20244;-72
2023/07/25 11:14:20;;;;;;;3.25;1.83;;;24.60;99.90;;;;;;5110890;28;20349;-71
2023/07/25 11:16:50;;;;;;;4.70;1.85;;;24.90;99.90;;;;;;5097461;28;20298;-72
2023/07/25 11:19:19;;;;;;;2.92;1.63;;;25.70;99.90;;;;;;5104772;28;20236;-71
2023/07/25 11:21:48;;;;;;;2.25;1.42;;;25.80;99.90;;;;;;5110773;28;20288;-71
2023/07/25 11:24:15;;;;;;;5.65;1.80;;;25.70;99.90;;;;;;5110835;28;20232;-73
2023/07/25 11:26:43;;;;;;;4.40;1.83;;;25.50;99.90;;;;;;5096970;28;20239;-79
2023/07/25 11:29:11;;;;;;;5.47;1.85;;;25.30;99.90;;;;;;5101239;28;20205;-75
2023/07/25 11:31:45;;;;;;;2.67;1.35;;;25.10;99.90;;;;;;5110145;28;20232;-71
2023/07/25 11:34:13;;;;;;;4.20;1.63;;;24.90;99.90;;;;;;5109094;28;20201;-71
2023/07/25 11:36:40;;;;;;;3.67;1.77;;;24.50;99.90;;;;;;5109461;28;20295;-72
2023/07/25 11:39:10;;;;;;;5.28;1.65;;;24.50;99.90;;;;;;5109839;28;20233;-72
2023/07/25 11:41:37;;;;;;;2.72;1.45;;;24.60;99.90;;;;;;5110438;28;20233;-81
2023/07/25 11:44:07;;;;;;;3.85;1.25;;;24.10;99.90;;;;;;5110092;28;20256;-72
2023/07/25 11:46:34;;;;;;;5.45;2.40;;;23.60;99.90;;;;;;5084728;28;20237;-72
2023/07/25 11:49:02;;;;;;;6.85;2.53;;;23.30;99.90;;;;;;5096608;28;20204;-73
2023/07/25 11:51:30;;;;;;;3.28;1.55;;;23.20;99.90;;;;;;5110460;28;20257;-71
2023/07/25 11:53:57;;;;;;;2.13;1.40;;;23.20;99.90;;;;;;5110176;28;20244;-72
2023/07/25 11:56:26;;;;;;;3.83;1.42;;;23.00;99.90;;;;;;5086633;28;20240;-72
2023/07/25 11:58:53;;;;;;;4.30;1.83;;;22.90;99.90;;;;;;5097689;28;20236;-72
2023/07/25 12:01:19;;;;;;;4.00;1.67;;;22.80;99.90;;;;;;5109886;28;20247;-72
2023/07/25 12:03:48;;;;;;;2.90;1.33;;;22.60;99.90;;;;;;5110673;28;20247;-76
2023/07/25 12:06:16;;;;;;;2.70;1.42;;;22.30;99.90;;;;;;5100266;28;20249;-72
2023/07/25 12:08:44;;;;;;;4.68;1.98;;;22.20;99.90;;;;;;5089927;28;20289;-73
2023/07/25 12:11:13;;;;;;;3.75;1.48;;;22.10;99.90;;;;;;5082104;28;20244;-71
2023/07/25 12:13:47;;;;;;;2.80;1.52;;;22.20;99.90;;;;;;5092661;28;20655;-71
2023/07/25 12:16:30;;;;;;;4.35;1.52;;;22.20;99.90;;;;;;5109936;28;20255;-71
2023/07/25 12:19:00;;;;;;;4.05;2.00;;;22.20;99.90;;;;;;5088958;28;20247;-72
2023/07/25 12:21:28;;;;;;;3.28;1.27;;;22.30;99.90;;;;;;5087374;28;20693;-72
2023/07/25 12:23:58;;;;;;;2.13;1.35;;;22.30;99.90;;;;;;5076859;28;20241;-73
2023/07/25 12:26:25;;;;;;;2.22;1.20;;;22.80;99.90;;;;;;5089279;28;20672;-76
2023/07/25 12:28:54;;;;;;;1.95;1.48;;;23.40;99.90;;;;;;5092925;28;20240;-72
2023/07/25 12:31:22;;;;;;;4.00;1.75;;;23.90;99.90;;;;;;5093093;28;20216;-72
2023/07/25 12:33:50;;;;;;;2.65;1.67;;;24.20;99.90;;;;;;5092952;28;20202;-72
2023/07/25 12:36:19;;;;;;;1.70;1.33;;;24.50;99.90;;;;;;5086936;28;20274;-78
2023/07/25 12:38:45;;;;;;;2.30;1.23;;;24.80;99.90;;;;;;5091185;28;20256;-71
2023/07/25 12:41:14;;;;;;;3.58;1.88;;;24.10;99.90;;;;;;5090992;28;20640;-70
2023/07/25 12:43:41;;;;;;;5.28;2.55;;;23.50;99.90;;;;;;5092920;28;20198;-71
2023/07/25 12:46:10;;;;;;;3.33;1.55;;;23.40;99.90;;;;;;5091794;28;20773;-72
2023/07/25 12:48:37;;;;;;;4.55;1.60;;;23.30;99.90;;;;;;5091013;28;20683;-71